Time;durP1;ratioP1;P1;durP2;ratioP2;P2;SDS_P1;SDS_P2;PMS_P1;PMS_P2;Temp;Humidity;BMP_temperature;BMP_pressure;BME280_temperature;BME280_humidity;BME280_pressure;Samples;Min_cycle;Max_cycle;Signal;HPM_P1;HPM_P2
2022/01/10 00:00:22;;;;;;;12.43;9.30;;;4.90;99.90;;;;;;5034671;28;20318;-68
2022/01/10 00:02:54;;;;;;;11.65;9.10;;;4.90;99.90;;;;;;5034955;28;20211;-68
2022/01/10 00:05:21;;;;;;;15.57;10.88;;;4.70;99.90;;;;;;5034799;28;20654;-69
2022/01/10 00:07:49;;;;;;;12.10;9.40;;;4.50;99.90;;;;;;5034798;28;20223;-68
2022/01/10 00:10:16;;;;;;;14.73;9.65;;;4.50;99.90;;;;;;5034992;28;20270;-68
2022/01/10 00:12:43;;;;;;;13.05;10.13;;;4.60;99.90;;;;;;5034821;28;20214;-68
2022/01/10 00:15:12;;;;;;;12.05;9.43;;;4.70;99.90;;;;;;5034618;28;20200;-68
2022/01/10 00:17:39;;;;;;;11.80;9.00;;;4.80;99.90;;;;;;5034728;28;20297;-68
2022/01/10 00:20:10;;;;;;;11.80;9.32;;;4.90;99.90;;;;;;5034958;28;20224;-68
2022/01/10 00:22:40;;;;;;;10.60;8.73;;;4.90;99.90;;;;;;5034943;28;20226;-68
2022/01/10 00:25:08;;;;;;;12.95;8.88;;;5.00;99.90;;;;;;5034707;28;20768;-68
2022/01/10 00:27:34;;;;;;;10.23;8.32;;;5.00;99.90;;;;;;5034871;28;20212;-68
2022/01/10 00:30:01;;;;;;;8.18;7.38;;;5.10;99.90;;;;;;5034915;28;20243;-68
2022/01/10 00:32:28;;;;;;;10.48;7.68;;;5.00;99.90;;;;;;5034005;28;20290;-68
2022/01/10 00:34:55;;;;;;;12.25;7.55;;;5.00;99.90;;;;;;5034167;28;20307;-68
2022/01/10 00:37:23;;;;;;;9.13;7.63;;;4.90;99.90;;;;;;5033824;28;20212;-68
2022/01/10 00:39:50;;;;;;;9.77;7.25;;;5.00;99.90;;;;;;5034051;28;20271;-68
2022/01/10 00:42:18;;;;;;;8.70;7.13;;;5.00;99.90;;;;;;5038002;28;20294;-68
2022/01/10 00:44:50;;;;;;;14.38;8.27;;;5.00;99.90;;;;;;5038071;28;20200;-68
2022/01/10 00:47:18;;;;;;;10.32;7.47;;;5.00;99.90;;;;;;5038310;28;20650;-68
2022/01/10 00:49:45;;;;;;;8.52;7.25;;;5.00;99.90;;;;;;5037984;28;20733;-68
2022/01/10 00:52:12;;;;;;;9.70;8.30;;;5.10;99.90;;;;;;5037940;28;20294;-68
2022/01/10 00:54:40;;;;;;;12.68;8.35;;;5.00;99.90;;;;;;5038255;28;20206;-68
2022/01/10 00:57:07;;;;;;;11.98;7.80;;;5.10;99.90;;;;;;5037782;28;20231;-69
2022/01/10 00:59:34;;;;;;;10.13;7.93;;;5.10;99.90;;;;;;5037765;28;20323;-68
2022/01/10 01:02:01;;;;;;;10.38;8.05;;;5.20;99.90;;;;;;5037656;28;20219;-68
2022/01/10 01:04:28;;;;;;;10.48;8.10;;;5.10;99.90;;;;;;5037551;28;20242;-68
2022/01/10 01:06:55;;;;;;;10.18;8.25;;;5.00;99.90;;;;;;5037864;28;20290;-68
2022/01/10 01:09:27;;;;;;;12.18;8.65;;;4.80;99.90;;;;;;5037566;28;20642;-68
2022/01/10 01:14:51;;;;;;;9.00;7.95;;;4.60;99.90;;;;;;5036585;28;20208;-68
2022/01/10 01:17:34;;;;;;;11.55;8.20;;;4.70;99.90;;;;;;5036935;28;20579;-68
2022/01/10 01:20:29;;;;;;;9.25;8.35;;;4.80;99.90;;;;;;5037512;28;20556;-68
2022/01/10 01:25:40;;;;;;;10.57;7.45;;;4.80;99.90;;;;;;5037337;28;20299;-68
2022/01/10 01:28:08;;;;;;;10.98;8.18;;;4.80;99.90;;;;;;5037096;28;20236;-68
2022/01/10 01:30:35;;;;;;;8.30;7.50;;;4.80;99.90;;;;;;5037197;28;20228;-68
2022/01/10 01:33:02;;;;;;;11.85;7.97;;;4.90;99.90;;;;;;5037527;28;20203;-68
2022/01/10 01:35:29;;;;;;;11.50;7.28;;;4.90;99.90;;;;;;5037276;28;20208;-69
2022/01/10 01:37:58;;;;;;;11.10;7.68;;;4.90;99.90;;;;;;5037001;28;20311;-68
2022/01/10 01:40:27;;;;;;;11.10;8.35;;;4.90;99.90;;;;;;5036858;28;20232;-68
2022/01/10 01:42:54;;;;;;;11.48;8.30;;;4.80;99.90;;;;;;5037175;28;20232;-68
2022/01/10 01:45:37;;;;;;;12.57;8.73;;;4.70;99.90;;;;;;5037119;28;20208;-68
2022/01/10 01:48:04;;;;;;;11.52;7.93;;;4.80;99.90;;;;;;5037908;28;20320;-68
2022/01/10 01:50:31;;;;;;;8.90;7.60;;;4.80;99.90;;;;;;5037083;28;20200;-68
2022/01/10 01:52:58;;;;;;;13.45;8.32;;;4.90;99.90;;;;;;5035886;28;20615;-68
2022/01/10 01:55:25;;;;;;;9.27;7.50;;;5.00;99.90;;;;;;5036745;28;20204;-68
2022/01/10 01:57:52;;;;;;;10.30;8.30;;;5.00;99.90;;;;;;5036706;28;20224;-68
2022/01/10 02:00:22;;;;;;;8.63;7.70;;;4.80;99.90;;;;;;5036792;28;20224;-68
2022/01/10 02:02:50;;;;;;;11.30;8.05;;;4.80;99.90;;;;;;5036571;28;20212;-68
2022/01/10 02:05:18;;;;;;;12.13;8.20;;;4.90;99.90;;;;;;5036377;28;20200;-68
2022/01/10 02:07:45;;;;;;;12.13;8.27;;;5.00;99.90;;;;;;5036467;28;20220;-68
2022/01/10 02:10:12;;;;;;;10.25;8.60;;;5.00;99.90;;;;;;5036942;28;20686;-68
2022/01/10 02:12:39;;;;;;;10.85;8.02;;;5.00;99.90;;;;;;5036474;28;20209;-68
2022/01/10 02:15:06;;;;;;;10.60;7.95;;;4.90;99.90;;;;;;5036103;28;20214;-68
2022/01/10 02:17:37;;;;;;;9.43;7.82;;;5.00;99.90;;;;;;5036308;28;20295;-68
2022/01/10 02:20:07;;;;;;;8.82;7.90;;;5.10;99.90;;;;;;5036210;28;20682;-68
2022/01/10 02:22:34;;;;;;;10.90;8.23;;;5.20;99.90;;;;;;5037177;28;20211;-68
2022/01/10 02:25:01;;;;;;;15.07;9.00;;;5.20;99.90;;;;;;5036453;28;20569;-68
2022/01/10 02:27:28;;;;;;;13.00;9.70;;;5.20;99.90;;;;;;5036551;28;20244;-68
2022/01/10 02:29:55;;;;;;;14.23;9.55;;;5.10;99.90;;;;;;5036599;28;20204;-68
2022/01/10 02:32:22;;;;;;;13.00;10.25;;;5.10;99.90;;;;;;5036582;28;20203;-69
2022/01/10 02:34:49;;;;;;;14.98;10.07;;;5.00;99.90;;;;;;5035965;28;20294;-68
2022/01/10 02:37:31;;;;;;;14.90;10.15;;;5.10;99.90;;;;;;5036404;28;20231;-68
2022/01/10 02:40:02;;;;;;;14.00;9.68;;;5.10;99.90;;;;;;5035726;28;20276;-68
2022/01/10 02:42:29;;;;;;;12.52;9.32;;;5.10;99.90;;;;;;5035556;28;20192;-68
2022/01/10 02:44:56;;;;;;;10.77;9.20;;;5.20;99.90;;;;;;5036355;28;20208;-68
2022/01/10 02:47:27;;;;;;;13.30;9.50;;;5.20;99.90;;;;;;5035617;28;20250;-68
2022/01/10 02:49:54;;;;;;;15.85;11.60;;;5.20;99.90;;;;;;5035965;28;20188;-68
2022/01/10 02:52:21;;;;;;;15.52;11.23;;;5.20;99.90;;;;;;5035831;28;20207;-68
2022/01/10 02:54:49;;;;;;;12.20;10.90;;;5.10;99.90;;;;;;5035428;28;20295;-68
2022/01/10 02:57:16;;;;;;;13.90;9.73;;;5.20;99.90;;;;;;5035602;28;20210;-68
2022/01/10 02:59:43;;;;;;;15.27;10.57;;;5.20;99.90;;;;;;5035502;28;20582;-68
2022/01/10 03:02:10;;;;;;;11.73;9.98;;;5.20;99.90;;;;;;5035587;28;20709;-68
2022/01/10 03:04:37;;;;;;;11.07;9.52;;;5.20;99.90;;;;;;5035177;28;20299;-69
2022/01/10 03:07:05;;;;;;;13.38;10.00;;;5.30;99.90;;;;;;5035522;28;20204;-68
2022/01/10 03:09:32;;;;;;;12.52;10.02;;;5.30;99.90;;;;;;5035647;28;20314;-68
2022/01/10 03:12:01;;;;;;;11.13;9.25;;;5.30;99.90;;;;;;5034949;28;20235;-68
2022/01/10 03:14:28;;;;;;;11.02;8.35;;;5.30;99.90;;;;;;5035037;28;20204;-69
2022/01/10 03:16:55;;;;;;;10.93;9.52;;;5.20;99.90;;;;;;5034882;28;20753;-68
2022/01/10 03:19:21;;;;;;;12.07;9.70;;;5.10;99.90;;;;;;5034978;28;20267;-68
2022/01/10 03:21:48;;;;;;;12.60;9.73;;;5.10;99.90;;;;;;5035408;28;20291;-69
2022/01/10 03:24:15;;;;;;;12.88;10.55;;;5.10;99.90;;;;;;5035006;28;20291;-68
2022/01/10 03:26:42;;;;;;;14.20;10.73;;;5.10;99.90;;;;;;5035009;28;20212;-68
2022/01/10 03:29:10;;;;;;;12.23;10.40;;;5.20;99.90;;;;;;5034964;28;20224;-68
2022/01/10 03:31:37;;;;;;;14.93;11.00;;;5.30;99.90;;;;;;5035357;28;20211;-68
2022/01/10 03:34:06;;;;;;;12.95;10.95;;;5.20;99.90;;;;;;5035039;28;20565;-68
2022/01/10 03:36:33;;;;;;;16.00;10.65;;;5.30;99.90;;;;;;5034916;28;20258;-68
2022/01/10 03:39:00;;;;;;;14.80;10.75;;;5.30;99.90;;;;;;5035472;28;20316;-68
2022/01/10 03:41:27;;;;;;;14.52;10.85;;;5.30;99.90;;;;;;5034799;28;20224;-68
2022/01/10 03:43:53;;;;;;;14.88;11.77;;;5.30;99.90;;;;;;5034389;28;20200;-68
2022/01/10 03:46:21;;;;;;;14.18;11.45;;;5.20;99.90;;;;;;5034620;28;20290;-68
2022/01/10 03:48:48;;;;;;;16.38;12.23;;;5.20;99.90;;;;;;5033852;28;20230;-68
2022/01/10 03:51:15;;;;;;;15.18;12.73;;;5.30;99.90;;;;;;5033766;28;20196;-68
2022/01/10 03:53:42;;;;;;;17.17;13.82;;;5.40;99.90;;;;;;5034068;28;20208;-68
2022/01/10 03:56:09;;;;;;;16.17;12.40;;;5.50;99.90;;;;;;5034132;28;20210;-68
2022/01/10 03:58:36;;;;;;;22.95;13.43;;;5.50;99.90;;;;;;5034020;28;20649;-68
2022/01/10 04:01:04;;;;;;;20.42;12.65;;;5.50;99.90;;;;;;5034298;28;20556;-68
2022/01/10 04:03:32;;;;;;;14.25;11.10;;;5.60;99.90;;;;;;5034125;28;20200;-68
2022/01/10 04:05:59;;;;;;;14.27;11.50;;;5.60;99.90;;;;;;5033336;28;20738;-68
2022/01/10 04:08:26;;;;;;;15.18;11.70;;;5.50;99.90;;;;;;5033726;28;20311;-68
2022/01/10 04:10:53;;;;;;;17.05;12.02;;;5.40;99.90;;;;;;5033514;28;20654;-68
2022/01/10 04:13:20;;;;;;;19.10;13.30;;;5.20;99.90;;;;;;5034249;28;20211;-68
2022/01/10 04:15:47;;;;;;;14.88;11.93;;;4.90;99.90;;;;;;5033328;28;20303;-68
2022/01/10 04:18:14;;;;;;;16.20;11.07;;;4.90;99.90;;;;;;5033828;28;20224;-68
2022/01/10 04:20:43;;;;;;;16.02;10.60;;;4.90;99.90;;;;;;5033690;28;20583;-68
2022/01/10 04:23:10;;;;;;;14.82;10.07;;;4.70;99.90;;;;;;5033655;28;20230;-68
2022/01/10 04:25:37;;;;;;;13.98;10.30;;;4.50;99.90;;;;;;5033777;28;20579;-68
2022/01/10 04:28:04;;;;;;;13.18;9.82;;;4.40;99.90;;;;;;5034480;28;20263;-68
2022/01/10 04:30:31;;;;;;;17.30;12.07;;;4.50;99.90;;;;;;5033450;28;20668;-68
2022/01/10 04:32:59;;;;;;;14.43;10.38;;;4.50;99.90;;;;;;5033583;28;20200;-68
2022/01/10 04:35:26;;;;;;;17.35;10.90;;;4.60;99.90;;;;;;5033552;28;20236;-68
2022/01/10 04:37:55;;;;;;;17.13;10.75;;;4.70;99.90;;;;;;5033559;28;20319;-68
2022/01/10 04:40:23;;;;;;;15.82;12.23;;;4.60;99.90;;;;;;5033726;28;20230;-68
2022/01/10 04:42:50;;;;;;;18.50;10.90;;;4.40;99.90;;;;;;5033399;28;20212;-68
2022/01/10 04:45:17;;;;;;;13.85;10.73;;;4.30;99.90;;;;;;5033254;28;20200;-68
2022/01/10 04:47:44;;;;;;;15.35;10.98;;;4.20;99.90;;;;;;5033410;28;20231;-68
2022/01/10 04:50:38;;;;;;;17.73;11.05;;;4.10;99.90;;;;;;5033086;28;20206;-68
2022/01/10 04:53:06;;;;;;;18.05;11.65;;;4.10;99.90;;;;;;5033335;28;20208;-68
2022/01/10 04:55:33;;;;;;;17.13;10.73;;;4.20;99.90;;;;;;5033225;28;20230;-68
2022/01/10 04:58:00;;;;;;;13.93;10.20;;;4.40;99.90;;;;;;5033426;28;20762;-68
2022/01/10 05:00:26;;;;;;;17.50;10.82;;;4.50;99.90;;;;;;5033649;28;20314;-68
2022/01/10 05:02:54;;;;;;;17.67;10.90;;;4.60;99.90;;;;;;5033460;28;20310;-68
2022/01/10 05:05:20;;;;;;;16.13;10.65;;;4.60;99.90;;;;;;5033270;28;20303;-68
2022/01/10 05:07:47;;;;;;;14.98;10.70;;;4.70;99.90;;;;;;5033170;28;20259;-68
2022/01/10 05:10:17;;;;;;;14.05;9.57;;;4.60;99.90;;;;;;5033403;28;20206;-68
2022/01/10 05:12:43;;;;;;;18.13;12.07;;;4.60;99.90;;;;;;5033237;28;20204;-68
2022/01/10 05:15:10;;;;;;;16.77;11.15;;;4.60;99.90;;;;;;5032987;28;20200;-68
2022/01/10 05:17:37;;;;;;;14.30;9.65;;;4.70;99.90;;;;;;5032995;28;20734;-68
2022/01/10 05:20:05;;;;;;;17.60;11.20;;;4.80;99.90;;;;;;5033097;28;20316;-68
2022/01/10 05:22:32;;;;;;;14.30;9.55;;;4.80;99.90;;;;;;5032942;28;20749;-68
2022/01/10 05:24:59;;;;;;;16.27;10.25;;;4.90;99.90;;;;;;5032749;28;20569;-68
2022/01/10 05:27:27;;;;;;;14.18;10.63;;;4.90;99.90;;;;;;5034815;28;20216;-68
2022/01/10 05:29:54;;;;;;;16.13;11.05;;;5.00;99.90;;;;;;5036665;28;20206;-68
2022/01/10 05:32:21;;;;;;;12.10;9.15;;;5.10;99.90;;;;;;5036381;28;20662;-68
2022/01/10 05:34:47;;;;;;;12.68;9.73;;;5.10;99.90;;;;;;5036200;28;20208;-68
2022/01/10 05:37:14;;;;;;;18.45;10.68;;;5.10;99.90;;;;;;5036507;28;20227;-68
2022/01/10 05:39:41;;;;;;;13.77;10.18;;;5.10;99.90;;;;;;5036105;28;20223;-68
2022/01/10 05:42:08;;;;;;;15.32;10.85;;;5.20;99.90;;;;;;5036307;28;20226;-68
2022/01/10 05:44:36;;;;;;;18.42;11.80;;;5.20;99.90;;;;;;5036182;28;20200;-68
2022/01/10 05:47:04;;;;;;;17.95;11.73;;;5.10;99.90;;;;;;5036387;28;20295;-68
2022/01/10 05:49:34;;;;;;;18.02;11.65;;;5.00;99.90;;;;;;5036319;28;20311;-68
2022/01/10 05:52:01;;;;;;;18.73;11.63;;;4.90;99.90;;;;;;5036320;28;20192;-68
2022/01/10 05:54:28;;;;;;;19.13;12.43;;;4.90;99.90;;;;;;5035704;28;20204;-68
2022/01/10 05:56:55;;;;;;;23.77;13.50;;;4.80;99.90;;;;;;5036167;28;20208;-68
2022/01/10 05:59:22;;;;;;;23.70;13.98;;;4.70;99.90;;;;;;5036009;28;20251;-68
2022/01/10 06:01:50;;;;;;;20.17;13.40;;;4.60;99.90;;;;;;5035935;28;20585;-68
2022/01/10 06:04:17;;;;;;;22.38;14.48;;;4.60;99.90;;;;;;5036082;28;20200;-68
2022/01/10 06:06:43;;;;;;;26.75;16.02;;;4.60;99.90;;;;;;5035760;28;20212;-68
2022/01/10 06:09:10;;;;;;;20.48;14.20;;;4.70;99.90;;;;;;5035934;28;20258;-68
2022/01/10 06:11:39;;;;;;;22.15;15.43;;;4.60;99.90;;;;;;5035900;28;20240;-68
2022/01/10 06:14:07;;;;;;;24.02;16.73;;;4.40;99.90;;;;;;5036446;28;20204;-68
2022/01/10 06:16:34;;;;;;;27.90;16.77;;;4.30;99.90;;;;;;5035439;28;20693;-68
2022/01/10 06:19:02;;;;;;;25.13;15.65;;;4.40;99.90;;;;;;5035807;28;20230;-68
2022/01/10 06:21:29;;;;;;;23.77;15.93;;;4.40;99.90;;;;;;5035332;28;20220;-68
2022/01/10 06:23:55;;;;;;;25.50;15.13;;;4.40;99.90;;;;;;5035431;28;20216;-68
2022/01/10 06:26:22;;;;;;;27.42;14.57;;;4.50;99.90;;;;;;5035020;28;20671;-68
2022/01/10 06:28:49;;;;;;;20.35;13.98;;;4.50;99.90;;;;;;5035538;28;20230;-68
2022/01/10 06:31:16;;;;;;;23.75;14.95;;;4.50;99.90;;;;;;5035434;28;20250;-68
2022/01/10 06:33:43;;;;;;;22.77;14.13;;;4.40;99.90;;;;;;5035442;28;20204;-68
2022/01/10 06:36:11;;;;;;;26.33;15.38;;;4.30;99.90;;;;;;5034906;28;20204;-68
2022/01/10 06:38:38;;;;;;;22.55;14.43;;;4.40;99.90;;;;;;5034479;28;20220;-68
2022/01/10 06:41:05;;;;;;;20.85;13.18;;;4.50;99.90;;;;;;5035044;28;20234;-68
2022/01/10 06:43:33;;;;;;;23.67;14.20;;;4.30;99.90;;;;;;5035284;28;20210;-68
2022/01/10 06:46:00;;;;;;;26.05;15.32;;;4.20;99.90;;;;;;5034875;28;20200;-68
2022/01/10 06:48:27;;;;;;;27.58;16.70;;;4.20;99.90;;;;;;5035312;28;20223;-68
2022/01/10 06:50:55;;;;;;;23.27;15.23;;;4.30;99.90;;;;;;5035066;28;20291;-68
2022/01/10 06:53:24;;;;;;;27.42;15.52;;;4.30;99.90;;;;;;5035088;28;20218;-68
2022/01/10 06:55:51;;;;;;;24.90;14.02;;;4.30;99.90;;;;;;5034918;28;20666;-68
2022/01/10 06:58:18;;;;;;;24.30;15.00;;;4.40;99.90;;;;;;5034979;28;20228;-68
2022/01/10 07:00:46;;;;;;;23.90;14.23;;;4.50;99.90;;;;;;5035105;28;20231;-68
2022/01/10 07:03:13;;;;;;;27.48;15.32;;;4.50;99.90;;;;;;5035015;28;20544;-68
2022/01/10 07:05:40;;;;;;;24.20;14.18;;;4.50;99.90;;;;;;5034761;28;20199;-68
2022/01/10 07:08:07;;;;;;;23.05;14.85;;;4.60;99.90;;;;;;5035063;28;20230;-69
2022/01/10 07:10:35;;;;;;;25.63;14.23;;;4.70;99.90;;;;;;5034883;28;20686;-68
2022/01/10 07:13:02;;;;;;;24.98;14.57;;;4.60;99.90;;;;;;5035573;28;20295;-68
2022/01/10 07:15:30;;;;;;;26.00;14.48;;;4.50;99.90;;;;;;5035021;28;20291;-68
2022/01/10 07:17:56;;;;;;;19.27;13.13;;;4.60;99.90;;;;;;5034753;28;20238;-68
2022/01/10 07:20:23;;;;;;;24.40;15.25;;;4.70;99.90;;;;;;5034942;28;20200;-68
2022/01/10 07:22:50;;;;;;;27.27;15.20;;;4.80;99.90;;;;;;5034969;28;20208;-68
2022/01/10 07:25:17;;;;;;;26.38;15.50;;;4.80;99.90;;;;;;5034521;28;20294;-68
2022/01/10 07:27:46;;;;;;;23.90;14.55;;;4.80;99.90;;;;;;5034613;28;20267;-68
2022/01/10 07:30:12;;;;;;;25.25;15.40;;;4.80;99.90;;;;;;5034803;28;20547;-68
2022/01/10 07:32:39;;;;;;;25.13;15.32;;;4.80;99.90;;;;;;5034580;28;20200;-68
2022/01/10 07:35:07;;;;;;;25.05;15.52;;;4.70;99.90;;;;;;5034558;28;20320;-69
2022/01/10 07:37:34;;;;;;;25.15;15.05;;;4.70;99.90;;;;;;5034654;28;20307;-68
2022/01/10 07:40:01;;;;;;;31.73;14.85;;;4.70;99.90;;;;;;5034854;28;20291;-68
2022/01/10 07:42:28;;;;;;;24.55;15.43;;;4.80;99.90;;;;;;5034668;28;20314;-68
2022/01/10 07:44:56;;;;;;;24.17;14.25;;;4.60;99.90;;;;;;5034129;28;20298;-68
2022/01/10 07:47:23;;;;;;;25.17;15.43;;;4.50;99.90;;;;;;5035045;28;20294;-68
2022/01/10 07:49:50;;;;;;;24.08;15.23;;;4.50;99.90;;;;;;5034028;28;20239;-68
2022/01/10 07:52:17;;;;;;;33.08;16.10;;;4.30;99.90;;;;;;5034692;28;20203;-68
2022/01/10 07:54:45;;;;;;;25.67;16.25;;;4.20;99.90;;;;;;5034093;28;20207;-68
2022/01/10 07:57:12;;;;;;;29.10;15.90;;;4.10;99.90;;;;;;5034291;28;20666;-68
2022/01/10 07:59:40;;;;;;;24.63;15.98;;;4.30;99.90;;;;;;5033920;28;20230;-68
2022/01/10 08:02:09;;;;;;;26.05;15.45;;;4.40;99.90;;;;;;5034215;28;20231;-68
2022/01/10 08:04:36;;;;;;;28.08;15.75;;;4.60;99.90;;;;;;5034172;28;20211;-68
2022/01/10 08:07:04;;;;;;;31.02;16.45;;;4.60;99.90;;;;;;5033911;28;20211;-68
2022/01/10 08:09:31;;;;;;;27.65;17.02;;;4.60;99.90;;;;;;5034144;28;20251;-68
2022/01/10 08:11:59;;;;;;;26.55;17.60;;;4.60;99.90;;;;;;5034558;28;20286;-68
2022/01/10 08:14:26;;;;;;;25.98;15.13;;;4.70;99.90;;;;;;5033972;28;20216;-68
2022/01/10 08:16:53;;;;;;;28.40;17.00;;;4.70;99.90;;;;;;5033894;28;20294;-68
2022/01/10 08:19:21;;;;;;;27.48;17.73;;;4.80;99.90;;;;;;5033753;28;20714;-68
2022/01/10 08:21:49;;;;;;;28.45;18.27;;;4.70;99.90;;;;;;5033941;28;20223;-68
2022/01/10 08:24:17;;;;;;;31.13;17.70;;;4.70;99.90;;;;;;5033969;28;20204;-68
2022/01/10 08:26:44;;;;;;;32.42;18.23;;;4.70;99.90;;;;;;5033628;28;20220;-68
2022/01/10 08:29:10;;;;;;;31.50;18.10;;;4.70;99.90;;;;;;5033695;28;20315;-68
2022/01/10 08:31:37;;;;;;;28.77;16.40;;;4.70;99.90;;;;;;5033933;28;20201;-68
2022/01/10 08:34:05;;;;;;;27.17;17.95;;;4.80;99.90;;;;;;5033569;28;20295;-68
2022/01/10 08:36:34;;;;;;;31.35;18.42;;;4.90;99.90;;;;;;5033872;28;20200;-68
2022/01/10 08:39:01;;;;;;;29.50;17.52;;;4.90;99.90;;;;;;5033647;28;20230;-68
2022/01/10 08:41:28;;;;;;;28.98;18.42;;;4.90;99.90;;;;;;5033498;28;20698;-68
2022/01/10 08:43:54;;;;;;;31.58;17.58;;;5.10;99.90;;;;;;5034044;28;20208;-68
2022/01/10 08:46:22;;;;;;;31.45;19.48;;;5.10;99.90;;;;;;5033621;28;20331;-68
2022/01/10 08:48:49;;;;;;;26.45;18.63;;;5.20;99.90;;;;;;5033656;28;20659;-68
2022/01/10 08:51:16;;;;;;;31.98;18.10;;;5.30;99.90;;;;;;5033555;28;20726;-68
2022/01/10 08:53:44;;;;;;;31.77;18.88;;;5.40;99.90;;;;;;5033870;28;20570;-68
2022/01/10 08:56:11;;;;;;;27.05;17.45;;;5.30;99.90;;;;;;5033590;28;20231;-68
2022/01/10 08:58:38;;;;;;;30.33;18.60;;;5.30;99.90;;;;;;5033628;28;20403;-68
2022/01/10 09:01:07;;;;;;;24.70;16.48;;;5.40;99.90;;;;;;5033805;28;20214;-68
2022/01/10 09:03:34;;;;;;;25.83;17.38;;;5.30;99.90;;;;;;5037327;28;20295;-68
2022/01/10 09:06:02;;;;;;;30.27;17.73;;;5.30;99.90;;;;;;5037038;28;20718;-68
2022/01/10 09:08:33;;;;;;;28.33;17.40;;;5.30;99.90;;;;;;5037354;28;20235;-68
2022/01/10 09:11:02;;;;;;;29.95;17.90;;;5.10;99.90;;;;;;5037277;28;20294;-68
2022/01/10 09:13:29;;;;;;;27.52;18.15;;;5.00;99.90;;;;;;5037210;28;20295;-68
2022/01/10 09:15:56;;;;;;;23.42;14.05;;;5.00;99.90;;;;;;5037178;28;20210;-68
2022/01/10 09:18:23;;;;;;;23.85;15.90;;;5.10;99.90;;;;;;5037041;28;20227;-68
2022/01/10 09:20:52;;;;;;;24.90;16.02;;;5.20;99.90;;;;;;5037108;28;20296;-68
2022/01/10 09:23:19;;;;;;;29.02;16.42;;;5.30;99.90;;;;;;5036969;28;20224;-68
2022/01/10 09:25:46;;;;;;;31.67;16.50;;;5.30;99.90;;;;;;5036982;28;20211;-68
2022/01/10 09:28:14;;;;;;;30.55;17.42;;;5.30;99.90;;;;;;5037334;28;20239;-68
2022/01/10 09:30:40;;;;;;;28.63;18.20;;;5.40;99.90;;;;;;5037057;28;20633;-68
2022/01/10 09:33:07;;;;;;;28.27;16.88;;;5.20;99.90;;;;;;5036595;28;20680;-68
2022/01/10 09:35:34;;;;;;;25.88;17.20;;;5.20;99.90;;;;;;5036383;28;20214;-68
2022/01/10 09:38:01;;;;;;;27.98;18.50;;;5.20;99.90;;;;;;5037097;28;20220;-68
2022/01/10 09:40:28;;;;;;;32.47;17.60;;;5.20;99.90;;;;;;5036595;28;20208;-68
2022/01/10 09:42:55;;;;;;;28.85;16.20;;;5.30;99.90;;;;;;5036670;28;20599;-68
2022/01/10 09:45:23;;;;;;;28.88;17.45;;;5.30;99.90;;;;;;5036424;28;20300;-68
2022/01/10 09:47:50;;;;;;;29.55;17.75;;;5.30;99.90;;;;;;5036761;28;20231;-68
2022/01/10 09:50:17;;;;;;;27.50;16.85;;;5.30;99.90;;;;;;5036518;28;20211;-68
2022/01/10 09:52:47;;;;;;;25.08;15.68;;;5.10;99.90;;;;;;5036672;28;20200;-68
2022/01/10 09:55:14;;;;;;;26.15;16.50;;;5.10;99.90;;;;;;5036210;28;20290;-68
2022/01/10 09:57:41;;;;;;;29.98;16.52;;;5.00;99.90;;;;;;5036018;28;20242;-68
2022/01/10 10:00:11;;;;;;;29.95;17.20;;;4.90;99.90;;;;;;5036480;28;20307;-68
2022/01/10 10:02:40;;;;;;;30.13;17.92;;;4.90;99.90;;;;;;5036313;28;20227;-68
2022/01/10 10:05:10;;;;;;;25.25;16.38;;;4.80;99.90;;;;;;5036158;28;20258;-68
2022/01/10 10:07:37;;;;;;;25.85;16.48;;;4.90;99.90;;;;;;5036180;28;20296;-68
2022/01/10 10:10:08;;;;;;;25.88;15.98;;;4.90;99.90;;;;;;5036304;28;20210;-68
2022/01/10 10:12:35;;;;;;;28.80;17.17;;;4.90;99.90;;;;;;5035904;28;20206;-68
2022/01/10 10:15:06;;;;;;;25.83;16.85;;;5.00;99.90;;;;;;5035481;28;20291;-68
2022/01/10 10:17:34;;;;;;;22.60;14.05;;;5.10;99.90;;;;;;5035894;28;20662;-68
2022/01/10 10:20:06;;;;;;;22.42;15.27;;;5.10;99.90;;;;;;5035840;28;20248;-68
2022/01/10 10:22:33;;;;;;;24.15;14.60;;;5.00;99.90;;;;;;5035830;28;20224;-68
2022/01/10 10:25:00;;;;;;;25.45;14.98;;;4.90;99.90;;;;;;5035870;28;20208;-68
2022/01/10 10:27:27;;;;;;;24.55;16.00;;;5.00;99.90;;;;;;5035663;28;20302;-68
2022/01/10 10:29:54;;;;;;;24.23;15.77;;;5.30;99.90;;;;;;5036023;28;20200;-68
2022/01/10 10:32:29;;;;;;;25.70;15.20;;;5.60;99.90;;;;;;5035854;28;20232;-68
2022/01/10 10:34:58;;;;;;;23.30;15.90;;;5.80;99.90;;;;;;5035713;28;20210;-68
2022/01/10 10:37:29;;;;;;;22.23;15.75;;;5.80;99.90;;;;;;5035582;28;20556;-68
2022/01/10 10:39:57;;;;;;;24.38;14.23;;;6.00;99.90;;;;;;5035833;28;20188;-68
2022/01/10 10:42:28;;;;;;;23.13;15.68;;;6.10;99.90;;;;;;5035694;28;20220;-68
2022/01/10 10:44:56;;;;;;;21.58;15.18;;;6.20;99.90;;;;;;5035559;28;20247;-68
2022/01/10 10:47:28;;;;;;;24.85;15.93;;;6.20;99.90;;;;;;5035558;28;20204;-68
2022/01/10 10:49:59;;;;;;;27.27;16.23;;;6.10;99.90;;;;;;5035892;28;20573;-68
2022/01/10 10:52:33;;;;;;;30.55;17.95;;;6.00;99.90;;;;;;5035909;28;20207;-68
2022/01/10 10:55:09;;;;;;;23.63;15.43;;;5.70;99.90;;;;;;5035514;28;20206;-68
2022/01/10 10:57:37;;;;;;;25.45;15.88;;;5.60;99.90;;;;;;5035422;28;20212;-68
2022/01/10 11:00:06;;;;;;;27.80;16.02;;;5.40;99.90;;;;;;5035286;28;20637;-68
2022/01/10 11:02:33;;;;;;;28.38;17.20;;;5.30;99.90;;;;;;5035347;28;20345;-68
2022/01/10 11:05:04;;;;;;;23.92;14.65;;;5.40;99.90;;;;;;5034909;28;20204;-68
2022/01/10 11:07:35;;;;;;;21.42;13.70;;;5.50;99.90;;;;;;5034914;28;20188;-68
2022/01/10 11:10:03;;;;;;;26.45;14.95;;;5.60;99.90;;;;;;5035387;28;20184;-68
2022/01/10 11:12:31;;;;;;;26.77;14.50;;;5.50;99.90;;;;;;5035082;28;20638;-68
2022/01/10 11:15:00;;;;;;;22.85;14.13;;;5.60;99.90;;;;;;5035046;28;20306;-68
2022/01/10 11:17:28;;;;;;;25.05;15.15;;;5.70;99.90;;;;;;5035206;28;20200;-68
2022/01/10 11:20:09;;;;;;;19.40;13.18;;;5.90;99.90;;;;;;5035029;28;20299;-68
2022/01/10 11:22:38;;;;;;;21.33;13.77;;;6.00;99.90;;;;;;5034978;28;20231;-68
2022/01/10 11:25:19;;;;;;;19.02;12.27;;;6.10;99.90;;;;;;5034505;28;20200;-68
2022/01/10 11:27:47;;;;;;;19.70;12.38;;;6.40;99.90;;;;;;5034690;28;20322;-68
2022/01/10 11:30:26;;;;;;;20.33;13.00;;;6.40;99.90;;;;;;5034435;28;20201;-68
2022/01/10 11:32:56;;;;;;;19.98;12.93;;;6.40;99.90;;;;;;5034700;28;20238;-68
2022/01/10 11:35:27;;;;;;;15.68;11.48;;;6.40;99.90;;;;;;5034769;28;20238;-68
2022/01/10 11:37:55;;;;;;;19.05;11.65;;;6.50;99.90;;;;;;5034614;28;20228;-68
2022/01/10 11:40:22;;;;;;;15.77;11.38;;;6.40;99.90;;;;;;5034410;28;20693;-68
2022/01/10 11:42:58;;;;;;;19.30;12.00;;;6.30;99.90;;;;;;5034594;28;20223;-68
2022/01/10 11:45:26;;;;;;;17.52;11.80;;;6.30;99.90;;;;;;5034022;28;20188;-68
2022/01/10 11:48:16;;;;;;;17.20;10.73;;;6.30;99.90;;;;;;5034534;28;20224;-68
2022/01/10 11:50:45;;;;;;;15.48;11.15;;;6.50;99.90;;;;;;5034581;28;20212;-68
2022/01/10 11:53:17;;;;;;;18.70;12.00;;;6.50;99.90;;;;;;5034164;28;20207;-68
2022/01/10 11:55:51;;;;;;;21.30;11.70;;;6.30;99.90;;;;;;5034165;28;20662;-68
2022/01/10 11:58:19;;;;;;;20.95;12.40;;;6.20;99.90;;;;;;5034036;28;20223;-68
2022/01/10 12:00:47;;;;;;;22.13;13.02;;;6.40;99.90;;;;;;5034590;28;20601;-68
2022/01/10 12:03:14;;;;;;;19.80;12.98;;;6.60;99.90;;;;;;5034104;28;20226;-68
2022/01/10 12:05:41;;;;;;;20.27;12.75;;;6.60;99.90;;;;;;5033807;28;20206;-68
2022/01/10 12:08:09;;;;;;;18.52;12.70;;;6.70;99.90;;;;;;5034135;28;20219;-68
2022/01/10 12:10:38;;;;;;;20.65;12.27;;;6.70;99.90;;;;;;5034360;28;20215;-68
2022/01/10 12:13:10;;;;;;;18.75;12.60;;;6.80;99.90;;;;;;5034246;28;20570;-68
2022/01/10 12:15:38;;;;;;;18.50;12.80;;;6.90;99.90;;;;;;5034127;28;20662;-68
2022/01/10 12:18:06;;;;;;;15.68;12.50;;;7.10;99.90;;;;;;5034095;28;20311;-68
2022/01/10 12:20:33;;;;;;;24.65;12.30;;;7.20;99.90;;;;;;5034200;28;20226;-68
2022/01/10 12:23:00;;;;;;;17.92;12.52;;;7.30;99.90;;;;;;5034170;28;20315;-68
2022/01/10 12:25:28;;;;;;;18.80;12.02;;;7.40;99.90;;;;;;5034021;28;20218;-68
2022/01/10 12:28:00;;;;;;;17.95;11.15;;;7.50;99.90;;;;;;5033762;28;20315;-68
2022/01/10 12:30:27;;;;;;;19.25;12.50;;;7.50;99.90;;;;;;5033943;28;20635;-68
2022/01/10 12:32:54;;;;;;;16.65;10.80;;;7.50;99.90;;;;;;5033807;28;20562;-68
2022/01/10 12:35:21;;;;;;;17.58;12.38;;;7.60;99.90;;;;;;5034127;28;20204;-68
2022/01/10 12:37:48;;;;;;;19.30;11.50;;;7.60;99.90;;;;;;5036774;28;20230;-68
2022/01/10 12:40:15;;;;;;;18.30;11.88;;;7.60;99.90;;;;;;5037682;28;20295;-68
2022/01/10 12:42:49;;;;;;;19.30;12.38;;;7.50;99.90;;;;;;5037566;28;20220;-68
2022/01/10 12:45:17;;;;;;;22.92;12.18;;;7.50;99.90;;;;;;5037733;28;20193;-68
2022/01/10 12:47:46;;;;;;;17.25;11.55;;;7.50;99.90;;;;;;5037974;28;20315;-68
2022/01/10 12:50:13;;;;;;;17.80;11.77;;;7.20;99.90;;;;;;5037532;28;20207;-68